sensor_id;sensor_type;location;lat;lon;timestamp;pressure;altitude;pressure_sealevel;temperature;humidity
51449;BME280;37520;46.570;14.268;2022-07-17T00:07:21;96403.19;;;16.80;98.78
51449;BME280;37520;46.570;14.268;2022-07-17T00:17:23;96412.25;;;16.79;99.79
51449;BME280;37520;46.570;14.268;2022-07-17T00:27:25;96426.16;;;16.81;100.00
51449;BME280;37520;46.570;14.268;2022-07-17T00:37:26;96429.34;;;16.83;100.00
51449;BME280;37520;46.570;14.268;2022-07-17T00:47:27;96430.66;;;16.80;100.00
51449;BME280;37520;46.570;14.268;2022-07-17T00:57:29;96423.44;;;16.75;99.65
51449;BME280;37520;46.570;14.268;2022-07-17T01:07:32;96424.47;;;16.64;100.00
51449;BME280;37520;46.570;14.268;2022-07-17T01:17:34;96421.78;;;16.54;98.79
51449;BME280;37520;46.570;14.268;2022-07-17T01:27:36;96432.72;;;16.47;98.88
51449;BME280;37520;46.570;14.268;2022-07-17T01:37:38;96433.47;;;16.37;98.49
51449;BME280;37520;46.570;14.268;2022-07-17T01:47:40;96424.59;;;16.26;99.84
51449;BME280;37520;46.570;14.268;2022-07-17T01:57:42;96427.47;;;16.20;100.00
51449;BME280;37520;46.570;14.268;2022-07-17T02:07:44;96429.84;;;16.11;99.26
51449;BME280;37520;46.570;14.268;2022-07-17T02:17:46;96439.66;;;16.00;98.90
51449;BME280;37520;46.570;14.268;2022-07-17T02:27:47;96438.25;;;15.92;99.78
51449;BME280;37520;46.570;14.268;2022-07-17T02:37:48;96434.22;;;15.85;98.12
51449;BME280;37520;46.570;14.268;2022-07-17T02:47:50;96441.88;;;15.76;99.07
51449;BME280;37520;46.570;14.268;2022-07-17T02:57:52;96457.28;;;15.69;100.00
51449;BME280;37520;46.570;14.268;2022-07-17T03:07:53;96461.28;;;15.71;100.00
51449;BME280;37520;46.570;14.268;2022-07-17T03:17:55;96472.50;;;15.73;100.00
51449;BME280;37520;46.570;14.268;2022-07-17T03:27:56;96477.09;;;15.78;100.00
51449;BME280;37520;46.570;14.268;2022-07-17T03:37:58;96486.44;;;15.80;100.00
51449;BME280;37520;46.570;14.268;2022-07-17T03:47:59;96498.78;;;15.87;100.00
51449;BME280;37520;46.570;14.268;2022-07-17T03:58:00;96511.34;;;15.91;100.00
51449;BME280;37520;46.570;14.268;2022-07-17T04:08:02;96509.78;;;16.01;100.00
51449;BME280;37520;46.570;14.268;2022-07-17T04:18:03;96504.28;;;16.13;100.00
51449;BME280;37520;46.570;14.268;2022-07-17T04:28:04;96521.13;;;16.18;100.00
51449;BME280;37520;46.570;14.268;2022-07-17T04:38:07;96528.97;;;16.35;100.00
51449;BME280;37520;46.570;14.268;2022-07-17T04:48:09;96531.75;;;16.56;100.00
51449;BME280;37520;46.570;14.268;2022-07-17T04:58:10;96551.84;;;16.74;100.00
51449;BME280;37520;46.570;14.268;2022-07-17T05:08:12;96548.69;;;16.82;100.00
51449;BME280;37520;46.570;14.268;2022-07-17T05:18:13;96543.19;;;16.99;100.00
51449;BME280;37520;46.570;14.268;2022-07-17T05:28:14;96549.69;;;17.19;100.00
51449;BME280;37520;46.570;14.268;2022-07-17T05:38:15;96552.94;;;17.42;99.91
51449;BME280;37520;46.570;14.268;2022-07-17T05:48:17;96564.75;;;17.61;97.28
51449;BME280;37520;46.570;14.268;2022-07-17T05:58:18;96576.50;;;17.76;93.60
51449;BME280;37520;46.570;14.268;2022-07-17T06:08:19;96584.06;;;17.94;89.95
51449;BME280;37520;46.570;14.268;2022-07-17T06:18:21;96576.56;;;18.22;86.77
51449;BME280;37520;46.570;14.268;2022-07-17T06:28:22;96589.84;;;18.84;79.18
51449;BME280;37520;46.570;14.268;2022-07-17T06:38:23;96592.78;;;19.08;72.52
51449;BME280;37520;46.570;14.268;2022-07-17T06:48:25;96585.13;;;19.91;69.27
51449;BME280;37520;46.570;14.268;2022-07-17T06:58:26;96588.59;;;21.09;65.76
51449;BME280;37520;46.570;14.268;2022-07-17T07:08:27;96595.41;;;21.45;59.95
51449;BME280;37520;46.570;14.268;2022-07-17T07:18:28;96592.41;;;21.28;61.46
51449;BME280;37520;46.570;14.268;2022-07-17T07:28:30;96588.88;;;21.08;63.16
51449;BME280;37520;46.570;14.268;2022-07-17T07:38:31;96597.50;;;21.05;60.93
51449;BME280;37520;46.570;14.268;2022-07-17T07:48:33;96588.19;;;21.65;59.42
51449;BME280;37520;46.570;14.268;2022-07-17T07:58:34;96587.03;;;22.23;56.35
51449;BME280;37520;46.570;14.268;2022-07-17T08:08:35;96586.25;;;22.03;57.68
51449;BME280;37520;46.570;14.268;2022-07-17T08:18:36;96586.91;;;21.95;57.94
51449;BME280;37520;46.570;14.268;2022-07-17T08:28:38;96593.22;;;22.23;52.62
51449;BME280;37520;46.570;14.268;2022-07-17T08:38:39;96600.00;;;22.54;53.36
51449;BME280;37520;46.570;14.268;2022-07-17T08:48:41;96600.66;;;23.07;51.36
51449;BME280;37520;46.570;14.268;2022-07-17T08:58:43;96604.06;;;23.40;50.32
51449;BME280;37520;46.570;14.268;2022-07-17T09:08:44;96604.75;;;23.46;48.26
51449;BME280;37520;46.570;14.268;2022-07-17T09:18:47;96598.16;;;23.52;48.46
51449;BME280;37520;46.570;14.268;2022-07-17T09:28:50;96591.63;;;24.49;47.77
51449;BME280;37520;46.570;14.268;2022-07-17T09:38:54;96587.06;;;25.39;46.18
51449;BME280;37520;46.570;14.268;2022-07-17T09:48:59;96590.13;;;25.99;45.82
51449;BME280;37520;46.570;14.268;2022-07-17T09:59:11;96580.44;;;25.98;42.94
51449;BME280;37520;46.570;14.268;2022-07-17T10:09:12;96574.22;;;26.06;43.37
51449;BME280;37520;46.570;14.268;2022-07-17T10:29:33;96562.38;;;27.23;42.49
51449;BME280;37520;46.570;14.268;2022-07-17T10:39:35;96550.78;;;27.44;43.43
51449;BME280;37520;46.570;14.268;2022-07-17T10:49:38;96539.97;;;27.77;42.34
51449;BME280;37520;46.570;14.268;2022-07-17T10:59:41;96523.59;;;28.07;42.07
51449;BME280;37520;46.570;14.268;2022-07-17T11:09:47;96515.03;;;28.30;41.86
51449;BME280;37520;46.570;14.268;2022-07-17T11:19:49;96511.91;;;28.53;41.18
51449;BME280;37520;46.570;14.268;2022-07-17T11:29:52;96503.19;;;28.59;39.91
51449;BME280;37520;46.570;14.268;2022-07-17T11:39:55;96479.44;;;28.81;39.56
51449;BME280;37520;46.570;14.268;2022-07-17T11:50:11;96468.84;;;28.55;40.53
51449;BME280;37520;46.570;14.268;2022-07-17T12:00:16;96452.88;;;28.66;40.61
51449;BME280;37520;46.570;14.268;2022-07-17T12:10:20;96439.03;;;28.46;41.03
51449;BME280;37520;46.570;14.268;2022-07-17T12:20:23;96432.94;;;28.49;41.00
51449;BME280;37520;46.570;14.268;2022-07-17T12:30:25;96426.53;;;29.07;41.46
51449;BME280;37520;46.570;14.268;2022-07-17T12:40:26;96420.63;;;29.30;39.09
51449;BME280;37520;46.570;14.268;2022-07-17T12:50:27;96412.09;;;29.31;39.96
51449;BME280;37520;46.570;14.268;2022-07-17T13:00:29;96389.06;;;29.28;38.76
51449;BME280;37520;46.570;14.268;2022-07-17T13:10:30;96396.81;;;29.14;37.70
51449;BME280;37520;46.570;14.268;2022-07-17T13:20:32;96391.31;;;29.39;37.85
51449;BME280;37520;46.570;14.268;2022-07-17T13:30:33;96372.03;;;29.32;38.88
51449;BME280;37520;46.570;14.268;2022-07-17T13:40:35;96365.63;;;29.11;38.41
51449;BME280;37520;46.570;14.268;2022-07-17T13:50:37;96363.41;;;29.01;38.76
51449;BME280;37520;46.570;14.268;2022-07-17T14:00:39;96361.56;;;29.05;39.31
51449;BME280;37520;46.570;14.268;2022-07-17T14:10:41;96339.13;;;29.37;40.23
51449;BME280;37520;46.570;14.268;2022-07-17T14:20:43;96327.91;;;29.38;38.76
51449;BME280;37520;46.570;14.268;2022-07-17T14:30:44;96326.34;;;29.25;37.05
51449;BME280;37520;46.570;14.268;2022-07-17T14:40:45;96313.09;;;28.95;37.33
51449;BME280;37520;46.570;14.268;2022-07-17T14:50:47;96301.94;;;28.72;38.05
51449;BME280;37520;46.570;14.268;2022-07-17T15:00:48;96308.03;;;28.81;38.08
51449;BME280;37520;46.570;14.268;2022-07-17T15:10:49;96304.81;;;28.38;37.19
51449;BME280;37520;46.570;14.268;2022-07-17T15:20:51;96303.94;;;28.22;38.73
51449;BME280;37520;46.570;14.268;2022-07-17T15:30:52;96291.22;;;28.01;36.74
51449;BME280;37520;46.570;14.268;2022-07-17T15:40:53;96292.59;;;27.82;39.20
51449;BME280;37520;46.570;14.268;2022-07-17T15:50:54;96285.44;;;27.65;40.13
51449;BME280;37520;46.570;14.268;2022-07-17T16:00:56;96293.38;;;27.37;39.89
51449;BME280;37520;46.570;14.268;2022-07-17T16:10:57;96277.69;;;26.97;39.56
51449;BME280;37520;46.570;14.268;2022-07-17T16:21:02;96284.22;;;26.53;41.83
51449;BME280;37520;46.570;14.268;2022-07-17T16:31:03;96276.03;;;26.11;41.99
51449;BME280;37520;46.570;14.268;2022-07-17T16:41:04;96286.91;;;25.64;40.47
51449;BME280;37520;46.570;14.268;2022-07-17T16:51:07;96289.06;;;25.23;42.79
51449;BME280;37520;46.570;14.268;2022-07-17T17:01:09;96284.50;;;24.88;42.83
51449;BME280;37520;46.570;14.268;2022-07-17T17:11:10;96295.78;;;24.64;43.24
51449;BME280;37520;46.570;14.268;2022-07-17T17:21:11;96296.53;;;24.21;48.19
51449;BME280;37520;46.570;14.268;2022-07-17T17:31:12;96310.94;;;24.07;45.90
51449;BME280;37520;46.570;14.268;2022-07-17T17:41:14;96312.69;;;23.72;50.95
51449;BME280;37520;46.570;14.268;2022-07-17T17:51:16;96314.69;;;23.57;48.54
51449;BME280;37520;46.570;14.268;2022-07-17T18:01:18;96321.69;;;23.27;48.97
51449;BME280;37520;46.570;14.268;2022-07-17T18:11:19;96332.72;;;22.80;55.76
51449;BME280;37520;46.570;14.268;2022-07-17T18:21:22;96350.47;;;22.30;56.97
51449;BME280;37520;46.570;14.268;2022-07-17T18:31:24;96355.44;;;21.95;57.93
51449;BME280;37520;46.570;14.268;2022-07-17T18:41:25;96367.53;;;21.51;59.65
51449;BME280;37520;46.570;14.268;2022-07-17T18:51:27;96379.03;;;21.18;60.06
51449;BME280;37520;46.570;14.268;2022-07-17T19:01:28;96388.44;;;20.83;59.94
51449;BME280;37520;46.570;14.268;2022-07-17T19:11:30;96413.16;;;20.60;60.74
51449;BME280;37520;46.570;14.268;2022-07-17T19:21:33;96430.94;;;20.32;62.48
51449;BME280;37520;46.570;14.268;2022-07-17T19:31:34;96447.59;;;20.05;66.14
51449;BME280;37520;46.570;14.268;2022-07-17T19:41:35;96460.94;;;19.80;66.03
51449;BME280;37520;46.570;14.268;2022-07-17T19:51:36;96477.19;;;19.60;67.52
51449;BME280;37520;46.570;14.268;2022-07-17T20:01:38;96471.72;;;19.41;66.52
51449;BME280;37520;46.570;14.268;2022-07-17T20:11:40;96487.69;;;19.11;67.68
51449;BME280;37520;46.570;14.268;2022-07-17T20:21:41;96495.28;;;18.89;71.82
51449;BME280;37520;46.570;14.268;2022-07-17T20:31:42;96497.78;;;18.64;70.04
51449;BME280;37520;46.570;14.268;2022-07-17T20:41:44;96501.34;;;18.44;72.97
51449;BME280;37520;46.570;14.268;2022-07-17T20:51:45;96508.84;;;18.21;75.06
51449;BME280;37520;46.570;14.268;2022-07-17T21:01:46;96510.78;;;18.06;75.25
51449;BME280;37520;46.570;14.268;2022-07-17T21:11:48;96516.63;;;17.92;73.49
51449;BME280;37520;46.570;14.268;2022-07-17T21:21:49;96539.63;;;17.67;74.99
51449;BME280;37520;46.570;14.268;2022-07-17T21:31:51;96551.34;;;17.51;75.96
51449;BME280;37520;46.570;14.268;2022-07-17T21:41:52;96547.31;;;17.33;77.29
51449;BME280;37520;46.570;14.268;2022-07-17T21:51:53;96555.81;;;17.19;76.50
51449;BME280;37520;46.570;14.268;2022-07-17T22:01:55;96570.44;;;17.01;78.29
51449;BME280;37520;46.570;14.268;2022-07-17T22:11:56;96570.88;;;16.88;78.46
51449;BME280;37520;46.570;14.268;2022-07-17T22:21:58;96587.63;;;16.73;78.30
51449;BME280;37520;46.570;14.268;2022-07-17T22:31:59;96595.28;;;16.59;79.02
51449;BME280;37520;46.570;14.268;2022-07-17T22:42:01;96587.72;;;16.46;79.32
51449;BME280;37520;46.570;14.268;2022-07-17T22:52:02;96589.78;;;16.33;80.67
51449;BME280;37520;46.570;14.268;2022-07-17T23:02:04;96591.81;;;16.21;81.17
51449;BME280;37520;46.570;14.268;2022-07-17T23:12:06;96590.97;;;16.10;81.27
51449;BME280;37520;46.570;14.268;2022-07-17T23:22:08;96596.72;;;15.97;81.21
51449;BME280;37520;46.570;14.268;2022-07-17T23:32:09;96601.19;;;15.91;82.39
51449;BME280;37520;46.570;14.268;2022-07-17T23:42:26;96595.97;;;15.79;82.74
51449;BME280;37520;46.570;14.268;2022-07-17T23:52:28;96597.97;;;15.67;82.77
